sensor_id;sensor_type;location;lat;lon;timestamp;pressure;altitude;pressure_sealevel;temperature;humidity
49947;BME280;35839;48.662;13.300;2023-01-29T05:34:08;98377.13;;;-1.61;100.00
49947;BME280;35839;48.662;13.300;2023-01-29T05:36:33;98385.06;;;-1.67;100.00
49947;BME280;35839;48.662;13.300;2023-01-29T05:38:59;98370.44;;;-1.94;100.00
49947;BME280;35839;48.662;13.300;2023-01-29T05:41:24;98379.16;;;-1.98;100.00
49947;BME280;35839;48.662;13.300;2023-01-29T05:43:49;98376.34;;;-1.90;100.00
49947;BME280;35839;48.662;13.300;2023-01-29T05:46:14;98379.41;;;-1.79;100.00
49947;BME280;35839;48.662;13.300;2023-01-29T05:48:40;98373.09;;;-1.95;100.00
49947;BME280;35839;48.662;13.300;2023-01-29T05:51:05;98366.47;;;-1.76;100.00
49947;BME280;35839;48.662;13.300;2023-01-29T05:53:31;98372.13;;;-1.66;100.00
49947;BME280;35839;48.662;13.300;2023-01-29T05:56:00;98374.84;;;-1.71;100.00
49947;BME280;35839;48.662;13.300;2023-01-29T05:58:25;98371.03;;;-1.84;100.00
49947;BME280;35839;48.662;13.300;2023-01-29T06:00:51;98371.00;;;-1.57;100.00
49947;BME280;35839;48.662;13.300;2023-01-29T06:03:16;98372.28;;;-1.71;100.00
49947;BME280;35839;48.662;13.300;2023-01-29T06:05:41;98372.78;;;-1.86;100.00
49947;BME280;35839;48.662;13.300;2023-01-29T06:08:07;98372.41;;;-1.74;100.00
49947;BME280;35839;48.662;13.300;2023-01-29T06:10:32;98375.88;;;-1.75;100.00
49947;BME280;35839;48.662;13.300;2023-01-29T06:12:58;98370.97;;;-1.56;100.00
49947;BME280;35839;48.662;13.300;2023-01-29T06:15:23;98376.56;;;-1.70;100.00
49947;BME280;35839;48.662;13.300;2023-01-29T06:17:52;98372.66;;;-1.56;100.00
49947;BME280;35839;48.662;13.300;2023-01-29T06:20:17;98377.00;;;-1.83;100.00
49947;BME280;35839;48.662;13.300;2023-01-29T06:22:43;98373.28;;;-1.75;100.00
49947;BME280;35839;48.662;13.300;2023-01-29T06:25:08;98374.84;;;-1.71;100.00
49947;BME280;35839;48.662;13.300;2023-01-29T06:27:33;98368.31;;;-1.79;100.00
49947;BME280;35839;48.662;13.300;2023-01-29T06:29:59;98371.19;;;-1.63;100.00
49947;BME280;35839;48.662;13.300;2023-01-29T06:32:24;98378.06;;;-1.64;100.00
49947;BME280;35839;48.662;13.300;2023-01-29T06:34:49;98375.78;;;-1.73;100.00
49947;BME280;35839;48.662;13.300;2023-01-29T06:37:15;98376.94;;;-1.55;100.00
49947;BME280;35839;48.662;13.300;2023-01-29T06:39:40;98384.56;;;-1.79;100.00
49947;BME280;35839;48.662;13.300;2023-01-29T06:42:05;98381.47;;;-1.90;100.00
49947;BME280;35839;48.662;13.300;2023-01-29T06:44:30;98383.47;;;-1.72;100.00
49947;BME280;35839;48.662;13.300;2023-01-29T06:46:56;98381.47;;;-1.90;100.00
49947;BME280;35839;48.662;13.300;2023-01-29T06:49:21;98386.72;;;-1.93;100.00
49947;BME280;35839;48.662;13.300;2023-01-29T06:51:47;98384.34;;;-1.73;100.00
49947;BME280;35839;48.662;13.300;2023-01-29T06:54:12;98375.66;;;-1.68;100.00
49947;BME280;35839;48.662;13.300;2023-01-29T06:56:38;98375.47;;;-1.62;100.00
49947;BME280;35839;48.662;13.300;2023-01-29T06:59:03;98367.16;;;-1.71;100.00
49947;BME280;35839;48.662;13.300;2023-01-29T07:01:28;98369.94;;;-1.77;100.00
49947;BME280;35839;48.662;13.300;2023-01-29T07:03:54;98358.28;;;-1.60;100.00
49947;BME280;35839;48.662;13.300;2023-01-29T07:06:19;98363.47;;;-1.88;100.00
49947;BME280;35839;48.662;13.300;2023-01-29T07:08:44;98362.59;;;-1.89;100.00
49947;BME280;35839;48.662;13.300;2023-01-29T07:11:10;98357.03;;;-1.75;100.00
49947;BME280;35839;48.662;13.300;2023-01-29T07:13:35;98358.56;;;-1.70;100.00
49947;BME280;35839;48.662;13.300;2023-01-29T07:16:01;98363.16;;;-1.53;100.00
49947;BME280;35839;48.662;13.300;2023-01-29T07:18:27;98359.13;;;-1.35;100.00
49947;BME280;35839;48.662;13.300;2023-01-29T07:20:53;98369.13;;;-1.52;100.00
49947;BME280;35839;48.662;13.300;2023-01-29T07:23:19;98344.66;;;-1.37;100.00
49947;BME280;35839;48.662;13.300;2023-01-29T07:25:44;98356.38;;;-1.55;100.00
49947;BME280;35839;48.662;13.300;2023-01-29T07:28:10;98352.31;;;-1.61;100.00
49947;BME280;35839;48.662;13.300;2023-01-29T07:30:35;98346.41;;;-1.64;100.00
49947;BME280;35839;48.662;13.300;2023-01-29T07:33:04;98363.91;;;-1.49;100.00
49947;BME280;35839;48.662;13.300;2023-01-29T07:35:31;98366.25;;;-1.43;100.00
49947;BME280;35839;48.662;13.300;2023-01-29T07:37:56;98358.88;;;-1.79;100.00
49947;BME280;35839;48.662;13.300;2023-01-29T07:40:22;98362.00;;;-1.71;100.00
49947;BME280;35839;48.662;13.300;2023-01-29T07:42:47;98360.47;;;-1.75;100.00
49947;BME280;35839;48.662;13.300;2023-01-29T07:45:12;98359.94;;;-1.59;100.00
49947;BME280;35839;48.662;13.300;2023-01-29T07:47:38;98360.78;;;-1.34;100.00
49947;BME280;35839;48.662;13.300;2023-01-29T07:50:04;98365.94;;;-1.34;100.00
49947;BME280;35839;48.662;13.300;2023-01-29T07:52:31;98369.41;;;-1.35;100.00
49947;BME280;35839;48.662;13.300;2023-01-29T07:54:57;98374.19;;;-1.49;100.00
49947;BME280;35839;48.662;13.300;2023-01-29T07:57:22;98378.00;;;-1.36;100.00
49947;BME280;35839;48.662;13.300;2023-01-29T07:59:47;98381.16;;;-1.54;100.00
49947;BME280;35839;48.662;13.300;2023-01-29T08:02:13;98374.03;;;-1.44;100.00
49947;BME280;35839;48.662;13.300;2023-01-29T08:04:38;98379.88;;;-1.41;100.00
49947;BME280;35839;48.662;13.300;2023-01-29T08:07:03;98390.94;;;-1.39;100.00
49947;BME280;35839;48.662;13.300;2023-01-29T08:09:30;98391.41;;;-1.53;100.00
49947;BME280;35839;48.662;13.300;2023-01-29T08:11:55;98389.19;;;-1.63;100.00
49947;BME280;35839;48.662;13.300;2023-01-29T08:14:21;98404.84;;;-1.44;100.00
49947;BME280;35839;48.662;13.300;2023-01-29T08:16:47;98411.47;;;-1.37;100.00
49947;BME280;35839;48.662;13.300;2023-01-29T08:19:12;98416.50;;;-1.61;100.00
49947;BME280;35839;48.662;13.300;2023-01-29T08:21:38;98417.03;;;-1.24;100.00
49947;BME280;35839;48.662;13.300;2023-01-29T08:24:03;98416.53;;;-1.36;100.00
49947;BME280;35839;48.662;13.300;2023-01-29T08:26:28;98427.38;;;-1.53;100.00
49947;BME280;35839;48.662;13.300;2023-01-29T08:28:54;98417.09;;;-1.53;100.00
49947;BME280;35839;48.662;13.300;2023-01-29T08:31:19;98427.19;;;-1.46;100.00
49947;BME280;35839;48.662;13.300;2023-01-29T08:33:45;98421.28;;;-1.23;100.00
49947;BME280;35839;48.662;13.300;2023-01-29T08:36:11;98419.03;;;-1.33;100.00
49947;BME280;35839;48.662;13.300;2023-01-29T08:38:37;98430.03;;;-1.04;100.00
49947;BME280;35839;48.662;13.300;2023-01-29T08:41:02;98430.47;;;-1.16;100.00
49947;BME280;35839;48.662;13.300;2023-01-29T08:43:27;98421.06;;;-1.17;100.00
49947;BME280;35839;48.662;13.300;2023-01-29T08:45:53;98429.75;;;-1.21;100.00
49947;BME280;35839;48.662;13.300;2023-01-29T08:48:18;98427.44;;;-1.02;100.00
49947;BME280;35839;48.662;13.300;2023-01-29T08:50:43;98440.31;;;-1.04;100.00
49947;BME280;35839;48.662;13.300;2023-01-29T08:53:09;98428.81;;;-0.94;100.00
49947;BME280;35839;48.662;13.300;2023-01-29T08:55:35;98431.00;;;-0.81;100.00
49947;BME280;35839;48.662;13.300;2023-01-29T08:58:03;98427.19;;;-0.71;100.00
49947;BME280;35839;48.662;13.300;2023-01-29T09:00:28;98435.38;;;-0.85;100.00
49947;BME280;35839;48.662;13.300;2023-01-29T09:02:54;98439.47;;;-0.79;100.00
49947;BME280;35839;48.662;13.300;2023-01-29T09:05:19;98439.88;;;-0.67;100.00
49947;BME280;35839;48.662;13.300;2023-01-29T09:07:44;98442.31;;;-0.87;100.00
49947;BME280;35839;48.662;13.300;2023-01-29T09:10:10;98440.75;;;-1.16;100.00
49947;BME280;35839;48.662;13.300;2023-01-29T09:12:36;98436.56;;;-0.70;100.00
49947;BME280;35839;48.662;13.300;2023-01-29T09:15:01;98451.16;;;-0.71;100.00
49947;BME280;35839;48.662;13.300;2023-01-29T09:17:27;98448.91;;;-0.55;100.00
49947;BME280;35839;48.662;13.300;2023-01-29T09:19:53;98457.19;;;-0.47;100.00
49947;BME280;35839;48.662;13.300;2023-01-29T09:22:19;98457.63;;;-0.59;100.00
49947;BME280;35839;48.662;13.300;2023-01-29T09:24:44;98449.75;;;-0.79;100.00
49947;BME280;35839;48.662;13.300;2023-01-29T09:27:09;98447.31;;;-0.59;100.00
49947;BME280;35839;48.662;13.300;2023-01-29T09:29:35;98450.34;;;-0.48;100.00
49947;BME280;35839;48.662;13.300;2023-01-29T09:32:01;98457.63;;;-0.35;100.00
49947;BME280;35839;48.662;13.300;2023-01-29T09:34:27;98451.16;;;-0.46;100.00
49947;BME280;35839;48.662;13.300;2023-01-29T09:36:52;98458.53;;;-0.85;100.00
49947;BME280;35839;48.662;13.300;2023-01-29T09:39:17;98457.06;;;-0.67;100.00
49947;BME280;35839;48.662;13.300;2023-01-29T09:41:55;98457.78;;;-0.64;100.00
49947;BME280;35839;48.662;13.300;2023-01-29T09:44:37;98453.84;;;-0.49;100.00
49947;BME280;35839;48.662;13.300;2023-01-29T09:47:12;98454.38;;;-0.64;100.00
49947;BME280;35839;48.662;13.300;2023-01-29T09:49:45;98443.53;;;-0.49;100.00
49947;BME280;35839;48.662;13.300;2023-01-29T09:52:39;98455.34;;;-0.43;100.00
49947;BME280;35839;48.662;13.300;2023-01-29T09:55:33;98440.81;;;-0.44;100.00
49947;BME280;35839;48.662;13.300;2023-01-29T09:58:12;98441.06;;;-0.28;100.00
49947;BME280;35839;48.662;13.300;2023-01-29T10:06:58;98437.22;;;0.06;100.00
49947;BME280;35839;48.662;13.300;2023-01-29T10:09:46;98429.94;;;-0.29;100.00
49947;BME280;35839;48.662;13.300;2023-01-29T10:21:35;98421.31;;;-0.04;100.00
49947;BME280;35839;48.662;13.300;2023-01-29T10:24:21;98404.91;;;-0.02;100.00
49947;BME280;35839;48.662;13.300;2023-01-29T10:26:49;98401.84;;;0.11;100.00
49947;BME280;35839;48.662;13.300;2023-01-29T10:29:18;98398.28;;;0.13;100.00
49947;BME280;35839;48.662;13.300;2023-01-29T10:31:45;98400.31;;;-0.39;100.00
49947;BME280;35839;48.662;13.300;2023-01-29T10:34:18;98387.34;;;-0.14;100.00
49947;BME280;35839;48.662;13.300;2023-01-29T10:36:49;98381.09;;;0.14;100.00
49947;BME280;35839;48.662;13.300;2023-01-29T10:39:22;98374.34;;;0.11;100.00
49947;BME280;35839;48.662;13.300;2023-01-29T10:53:18;98380.50;;;0.29;100.00
49947;BME280;35839;48.662;13.300;2023-01-29T11:01:00;98390.69;;;-0.12;100.00
49947;BME280;35839;48.662;13.300;2023-01-29T11:03:28;98383.13;;;-0.16;100.00
49947;BME280;35839;48.662;13.300;2023-01-29T11:08:22;98386.66;;;-0.19;100.00
49947;BME280;35839;48.662;13.300;2023-01-29T11:11:11;98389.72;;;-0.31;100.00
49947;BME280;35839;48.662;13.300;2023-01-29T11:13:54;98379.78;;;0.04;100.00
49947;BME280;35839;48.662;13.300;2023-01-29T11:16:21;98364.47;;;0.01;100.00
49947;BME280;35839;48.662;13.300;2023-01-29T11:18:58;98372.91;;;-0.18;100.00
49947;BME280;35839;48.662;13.300;2023-01-29T11:21:25;98355.72;;;0.05;100.00
49947;BME280;35839;48.662;13.300;2023-01-29T11:24:11;98351.13;;;-0.09;100.00
49947;BME280;35839;48.662;13.300;2023-01-29T11:26:39;98338.47;;;0.07;100.00
49947;BME280;35839;48.662;13.300;2023-01-29T11:31:52;98339.16;;;0.32;100.00
49947;BME280;35839;48.662;13.300;2023-01-29T11:34:20;98331.53;;;0.09;100.00
49947;BME280;35839;48.662;13.300;2023-01-29T11:36:56;98320.97;;;0.15;100.00
49947;BME280;35839;48.662;13.300;2023-01-29T11:39:23;98320.59;;;0.24;100.00
49947;BME280;35839;48.662;13.300;2023-01-29T11:42:19;98306.31;;;0.37;100.00
49947;BME280;35839;48.662;13.300;2023-01-29T11:44:45;98304.00;;;0.31;100.00
49947;BME280;35839;48.662;13.300;2023-01-29T11:49:44;98307.41;;;-0.33;100.00
49947;BME280;35839;48.662;13.300;2023-01-29T11:52:12;98316.44;;;-0.67;100.00
49947;BME280;35839;48.662;13.300;2023-01-29T11:54:59;98315.63;;;-0.23;100.00
49947;BME280;35839;48.662;13.300;2023-01-29T11:57:30;98303.91;;;-0.30;100.00
49947;BME280;35839;48.662;13.300;2023-01-29T12:00:03;98298.53;;;-0.04;100.00
49947;BME280;35839;48.662;13.300;2023-01-29T12:02:36;98302.13;;;-0.08;100.00
49947;BME280;35839;48.662;13.300;2023-01-29T12:05:14;98294.53;;;-0.11;100.00
49947;BME280;35839;48.662;13.300;2023-01-29T12:07:47;98299.69;;;-0.55;100.00
49947;BME280;35839;48.662;13.300;2023-01-29T12:15:36;98296.34;;;-0.13;100.00
49947;BME280;35839;48.662;13.300;2023-01-29T12:20:53;98295.81;;;-0.43;100.00
49947;BME280;35839;48.662;13.300;2023-01-29T12:26:32;98307.97;;;-0.25;100.00
49947;BME280;35839;48.662;13.300;2023-01-29T12:29:17;98297.06;;;-0.31;100.00
49947;BME280;35839;48.662;13.300;2023-01-29T12:39:37;98262.78;;;-0.32;100.00
49947;BME280;35839;48.662;13.300;2023-01-29T12:42:23;98253.13;;;-0.05;100.00
49947;BME280;35839;48.662;13.300;2023-01-29T12:45:00;98245.28;;;0.19;100.00
49947;BME280;35839;48.662;13.300;2023-01-29T12:47:41;98248.16;;;-0.09;100.00
49947;BME280;35839;48.662;13.300;2023-01-29T12:50:18;98235.28;;;-0.09;100.00
49947;BME280;35839;48.662;13.300;2023-01-29T12:52:50;98237.38;;;0.02;100.00
49947;BME280;35839;48.662;13.300;2023-01-29T12:55:19;98241.00;;;-0.03;100.00
49947;BME280;35839;48.662;13.300;2023-01-29T12:57:52;98229.63;;;0.03;100.00
49947;BME280;35839;48.662;13.300;2023-01-29T13:00:23;98232.81;;;0.08;100.00
49947;BME280;35839;48.662;13.300;2023-01-29T13:08:15;98232.38;;;-0.44;100.00
49947;BME280;35839;48.662;13.300;2023-01-29T13:10:46;98229.31;;;-0.54;100.00
49947;BME280;35839;48.662;13.300;2023-01-29T13:13:30;98227.94;;;-0.18;100.00
49947;BME280;35839;48.662;13.300;2023-01-29T13:15:57;98231.09;;;-0.34;100.00
49947;BME280;35839;48.662;13.300;2023-01-29T13:18:49;98225.91;;;-0.12;100.00
49947;BME280;35839;48.662;13.300;2023-01-29T13:21:21;98228.88;;;-0.01;100.00
49947;BME280;35839;48.662;13.300;2023-01-29T13:23:53;98237.84;;;-0.09;100.00
49947;BME280;35839;48.662;13.300;2023-01-29T13:26:20;98226.50;;;-0.48;100.00
49947;BME280;35839;48.662;13.300;2023-01-29T13:28:47;98223.88;;;-0.46;100.00
49947;BME280;35839;48.662;13.300;2023-01-29T13:33:42;98222.09;;;-0.24;100.00
49947;BME280;35839;48.662;13.300;2023-01-29T13:36:20;98226.81;;;-0.13;100.00
49947;BME280;35839;48.662;13.300;2023-01-29T13:38:54;98226.69;;;-0.10;100.00
49947;BME280;35839;48.662;13.300;2023-01-29T13:41:31;98230.16;;;-0.31;100.00
49947;BME280;35839;48.662;13.300;2023-01-29T13:43:57;98232.34;;;-0.22;100.00
49947;BME280;35839;48.662;13.300;2023-01-29T13:46:22;98235.78;;;-0.44;100.00
49947;BME280;35839;48.662;13.300;2023-01-29T13:48:49;98227.84;;;-0.17;100.00
49947;BME280;35839;48.662;13.300;2023-01-29T13:51:19;98229.13;;;-0.49;100.00
49947;BME280;35839;48.662;13.300;2023-01-29T13:54:07;98220.69;;;-0.31;100.00
49947;BME280;35839;48.662;13.300;2023-01-29T13:59:07;98218.97;;;-0.10;100.00
49947;BME280;35839;48.662;13.300;2023-01-29T14:06:57;98206.66;;;-0.24;100.00
49947;BME280;35839;48.662;13.300;2023-01-29T14:17:20;98202.00;;;-0.14;100.00
49947;BME280;35839;48.662;13.300;2023-01-29T14:19:51;98203.53;;;-0.10;100.00
49947;BME280;35839;48.662;13.300;2023-01-29T14:22:19;98191.91;;;-0.18;100.00
49947;BME280;35839;48.662;13.300;2023-01-29T14:24:46;98187.59;;;0.03;100.00
49947;BME280;35839;48.662;13.300;2023-01-29T14:27:19;98187.44;;;0.06;100.00
49947;BME280;35839;48.662;13.300;2023-01-29T14:29:46;98187.19;;;0.12;100.00
49947;BME280;35839;48.662;13.300;2023-01-29T14:32:17;98190.50;;;0.14;100.00
49947;BME280;35839;48.662;13.300;2023-01-29T14:34:47;98189.25;;;0.04;100.00
49947;BME280;35839;48.662;13.300;2023-01-29T14:39:43;98195.94;;;-0.13;100.00
49947;BME280;35839;48.662;13.300;2023-01-29T14:42:33;98192.72;;;-0.18;100.00
49947;BME280;35839;48.662;13.300;2023-01-29T14:45:20;98196.78;;;0.08;100.00
49947;BME280;35839;48.662;13.300;2023-01-29T14:52:43;98191.59;;;-0.33;100.00
49947;BME280;35839;48.662;13.300;2023-01-29T14:56:02;98180.59;;;-0.36;100.00
49947;BME280;35839;48.662;13.300;2023-01-29T14:58:02;98187.75;;;-0.23;100.00
49947;BME280;35839;48.662;13.300;2023-01-29T15:00:30;98187.94;;;-0.27;100.00
49947;BME280;35839;48.662;13.300;2023-01-29T15:02:59;98184.47;;;-0.26;100.00
49947;BME280;35839;48.662;13.300;2023-01-29T15:05:31;98184.63;;;-0.09;100.00
49947;BME280;35839;48.662;13.300;2023-01-29T15:08:22;98182.53;;;-0.01;100.00
49947;BME280;35839;48.662;13.300;2023-01-29T15:10:56;98177.13;;;-0.15;100.00
49947;BME280;35839;48.662;13.300;2023-01-29T15:13:51;98177.28;;;0.03;100.00
49947;BME280;35839;48.662;13.300;2023-01-29T15:16:21;98172.53;;;-0.07;100.00
49947;BME280;35839;48.662;13.300;2023-01-29T15:18:50;98181.66;;;0.01;100.00
49947;BME280;35839;48.662;13.300;2023-01-29T15:21:19;98179.19;;;-0.03;100.00
49947;BME280;35839;48.662;13.300;2023-01-29T15:23:45;98191.41;;;-0.28;100.00
49947;BME280;35839;48.662;13.300;2023-01-29T15:26:21;98187.56;;;-0.18;100.00
49947;BME280;35839;48.662;13.300;2023-01-29T15:28:54;98188.38;;;-0.38;100.00
49947;BME280;35839;48.662;13.300;2023-01-29T15:31:20;98192.69;;;-0.38;100.00
49947;BME280;35839;48.662;13.300;2023-01-29T15:33:47;98188.00;;;-0.29;100.00
49947;BME280;35839;48.662;13.300;2023-01-29T15:36:19;98194.13;;;-0.31;100.00
49947;BME280;35839;48.662;13.300;2023-01-29T15:38:46;98193.78;;;-0.44;100.00
49947;BME280;35839;48.662;13.300;2023-01-29T15:41:16;98187.13;;;-0.50;100.00
49947;BME280;35839;48.662;13.300;2023-01-29T15:43:44;98194.75;;;-0.26;100.00
49947;BME280;35839;48.662;13.300;2023-01-29T15:46:26;98186.28;;;-0.08;100.00
49947;BME280;35839;48.662;13.300;2023-01-29T15:48:54;98175.47;;;-0.16;100.00
49947;BME280;35839;48.662;13.300;2023-01-29T15:51:22;98179.81;;;-0.38;100.00
49947;BME280;35839;48.662;13.300;2023-01-29T15:54:04;98171.19;;;-0.58;100.00
49947;BME280;35839;48.662;13.300;2023-01-29T15:56:34;98174.16;;;-0.47;100.00
49947;BME280;35839;48.662;13.300;2023-01-29T15:59:03;98170.81;;;-0.49;100.00
49947;BME280;35839;48.662;13.300;2023-01-29T16:01:30;98164.72;;;-0.46;100.00
49947;BME280;35839;48.662;13.300;2023-01-29T16:03:57;98183.69;;;-0.49;100.00
49947;BME280;35839;48.662;13.300;2023-01-29T16:06:27;98182.34;;;-0.37;100.00
49947;BME280;35839;48.662;13.300;2023-01-29T16:08:54;98180.84;;;-0.43;100.00
49947;BME280;35839;48.662;13.300;2023-01-29T16:11:19;98171.34;;;-0.40;100.00
49947;BME280;35839;48.662;13.300;2023-01-29T16:13:47;98175.22;;;-0.30;100.00
49947;BME280;35839;48.662;13.300;2023-01-29T16:18:43;98171.84;;;-0.12;100.00
49947;BME280;35839;48.662;13.300;2023-01-29T16:21:31;98174.03;;;-0.03;100.00
49947;BME280;35839;48.662;13.300;2023-01-29T16:24:01;98169.28;;;-0.12;100.00
49947;BME280;35839;48.662;13.300;2023-01-29T16:26:31;98182.47;;;-0.19;100.00
49947;BME280;35839;48.662;13.300;2023-01-29T16:29:04;98173.91;;;-0.40;100.00
49947;BME280;35839;48.662;13.300;2023-01-29T16:31:30;98180.84;;;-0.43;100.00
49947;BME280;35839;48.662;13.300;2023-01-29T16:33:58;98178.69;;;-0.31;100.00
49947;BME280;35839;48.662;13.300;2023-01-29T16:36:29;98186.63;;;-0.37;100.00
49947;BME280;35839;48.662;13.300;2023-01-29T16:38:57;98182.41;;;-0.38;100.00
49947;BME280;35839;48.662;13.300;2023-01-29T16:41:31;98189.47;;;-0.44;100.00
49947;BME280;35839;48.662;13.300;2023-01-29T16:44:01;98196.19;;;-0.39;100.00
49947;BME280;35839;48.662;13.300;2023-01-29T16:46:33;98191.88;;;-0.39;100.00
49947;BME280;35839;48.662;13.300;2023-01-29T16:48:59;98194.91;;;-0.29;100.00
49947;BME280;35839;48.662;13.300;2023-01-29T16:51:35;98195.44;;;-0.43;100.00
49947;BME280;35839;48.662;13.300;2023-01-29T16:54:11;98197.59;;;-0.32;100.00
49947;BME280;35839;48.662;13.300;2023-01-29T16:56:43;98188.84;;;-0.28;100.00
49947;BME280;35839;48.662;13.300;2023-01-29T16:59:17;98191.94;;;-0.20;100.00
49947;BME280;35839;48.662;13.300;2023-01-29T17:01:44;98204.22;;;-0.27;100.00
49947;BME280;35839;48.662;13.300;2023-01-29T17:04:13;98202.03;;;-0.36;100.00
49947;BME280;35839;48.662;13.300;2023-01-29T17:06:42;98200.38;;;-0.37;100.00
49947;BME280;35839;48.662;13.300;2023-01-29T17:09:20;98195.34;;;-0.62;100.00
49947;BME280;35839;48.662;13.300;2023-01-29T17:11:46;98188.78;;;-0.69;100.00
49947;BME280;35839;48.662;13.300;2023-01-29T17:14:18;98185.75;;;-0.36;100.00
49947;BME280;35839;48.662;13.300;2023-01-29T17:16:56;98194.31;;;-0.36;100.00
49947;BME280;35839;48.662;13.300;2023-01-29T17:19:26;98175.69;;;-0.43;100.00
49947;BME280;35839;48.662;13.300;2023-01-29T17:21:52;98192.84;;;-0.41;100.00
49947;BME280;35839;48.662;13.300;2023-01-29T17:24:17;98188.41;;;-0.60;100.00
49947;BME280;35839;48.662;13.300;2023-01-29T17:26:42;98188.94;;;-0.52;100.00
49947;BME280;35839;48.662;13.300;2023-01-29T17:29:12;98184.84;;;-0.35;100.00
49947;BME280;35839;48.662;13.300;2023-01-29T17:31:40;98176.56;;;-0.22;100.00
49947;BME280;35839;48.662;13.300;2023-01-29T17:34:10;98184.75;;;-0.32;100.00
49947;BME280;35839;48.662;13.300;2023-01-29T17:36:36;98192.78;;;-0.19;100.00
49947;BME280;35839;48.662;13.300;2023-01-29T17:39:15;98194.34;;;-0.15;100.00
49947;BME280;35839;48.662;13.300;2023-01-29T17:41:41;98194.63;;;-0.03;100.00
49947;BME280;35839;48.662;13.300;2023-01-29T17:44:09;98197.41;;;-0.07;100.00
49947;BME280;35839;48.662;13.300;2023-01-29T17:46:34;98184.16;;;-0.18;100.00
49947;BME280;35839;48.662;13.300;2023-01-29T17:48:59;98193.88;;;-0.25;100.00
49947;BME280;35839;48.662;13.300;2023-01-29T17:51:25;98195.41;;;-0.21;100.00
49947;BME280;35839;48.662;13.300;2023-01-29T17:53:50;98192.31;;;-0.29;100.00
49947;BME280;35839;48.662;13.300;2023-01-29T17:56:24;98195.09;;;-0.13;100.00
49947;BME280;35839;48.662;13.300;2023-01-29T17:58:54;98194.34;;;-0.37;100.00
49947;BME280;35839;48.662;13.300;2023-01-29T18:01:20;98198.50;;;-0.33;100.00
49947;BME280;35839;48.662;13.300;2023-01-29T18:03:45;98194.16;;;-0.33;100.00
49947;BME280;35839;48.662;13.300;2023-01-29T18:06:19;98200.44;;;-0.18;100.00
49947;BME280;35839;48.662;13.300;2023-01-29T18:08:47;98202.38;;;-0.23;100.00
49947;BME280;35839;48.662;13.300;2023-01-29T18:11:12;98204.28;;;-0.49;100.00
49947;BME280;35839;48.662;13.300;2023-01-29T18:13:37;98204.78;;;-0.40;100.00
49947;BME280;35839;48.662;13.300;2023-01-29T18:16:05;98208.63;;;-0.51;100.00
49947;BME280;35839;48.662;13.300;2023-01-29T18:18:31;98200.28;;;-0.56;100.00
49947;BME280;35839;48.662;13.300;2023-01-29T18:20:56;98200.69;;;-0.24;100.00
49947;BME280;35839;48.662;13.300;2023-01-29T18:23:21;98200.97;;;-0.52;100.00
49947;BME280;35839;48.662;13.300;2023-01-29T18:25:47;98198.34;;;-0.51;100.00
49947;BME280;35839;48.662;13.300;2023-01-29T18:28:16;98200.28;;;-0.35;100.00
49947;BME280;35839;48.662;13.300;2023-01-29T18:30:42;98198.66;;;-0.38;100.00
49947;BME280;35839;48.662;13.300;2023-01-29T18:33:09;98196.88;;;-0.36;100.00
49947;BME280;35839;48.662;13.300;2023-01-29T18:35:35;98191.31;;;-0.25;100.00
49947;BME280;35839;48.662;13.300;2023-01-29T18:38:00;98185.84;;;-0.17;100.00
49947;BME280;35839;48.662;13.300;2023-01-29T18:40:26;98183.31;;;-0.19;100.00
49947;BME280;35839;48.662;13.300;2023-01-29T18:42:51;98181.31;;;-0.33;100.00
49947;BME280;35839;48.662;13.300;2023-01-29T18:45:17;98179.50;;;-0.31;100.00
49947;BME280;35839;48.662;13.300;2023-01-29T18:47:42;98178.53;;;-0.28;100.00
49947;BME280;35839;48.662;13.300;2023-01-29T18:50:09;98180.25;;;-0.49;100.00
49947;BME280;35839;48.662;13.300;2023-01-29T18:52:35;98179.25;;;-0.25;100.00
49947;BME280;35839;48.662;13.300;2023-01-29T18:55:00;98181.66;;;-0.20;100.00
49947;BME280;35839;48.662;13.300;2023-01-29T18:57:26;98188.97;;;-0.31;100.00
49947;BME280;35839;48.662;13.300;2023-01-29T18:59:52;98185.25;;;-0.24;100.00
49947;BME280;35839;48.662;13.300;2023-01-29T19:02:17;98174.56;;;-0.15;100.00
49947;BME280;35839;48.662;13.300;2023-01-29T19:04:44;98173.00;;;-0.19;100.00
49947;BME280;35839;48.662;13.300;2023-01-29T19:07:10;98173.16;;;-0.22;100.00
49947;BME280;35839;48.662;13.300;2023-01-29T19:09:37;98180.63;;;-0.16;100.00
49947;BME280;35839;48.662;13.300;2023-01-29T19:12:05;98184.06;;;-0.37;100.00
49947;BME280;35839;48.662;13.300;2023-01-29T19:14:30;98184.59;;;-0.29;100.00
49947;BME280;35839;48.662;13.300;2023-01-29T19:16:56;98179.78;;;-0.37;100.00
49947;BME280;35839;48.662;13.300;2023-01-29T19:19:21;98176.75;;;-0.26;100.00
49947;BME280;35839;48.662;13.300;2023-01-29T19:21:50;98184.56;;;-0.50;100.00
49947;BME280;35839;48.662;13.300;2023-01-29T19:24:16;98179.78;;;-0.59;100.00
49947;BME280;35839;48.662;13.300;2023-01-29T19:26:41;98174.59;;;-0.57;100.00
49947;BME280;35839;48.662;13.300;2023-01-29T19:29:06;98179.59;;;-0.54;100.00
49947;BME280;35839;48.662;13.300;2023-01-29T19:31:32;98178.00;;;-0.57;100.00
49947;BME280;35839;48.662;13.300;2023-01-29T19:33:57;98179.91;;;-0.62;100.00
49947;BME280;35839;48.662;13.300;2023-01-29T19:36:23;98172.34;;;-0.45;100.00
49947;BME280;35839;48.662;13.300;2023-01-29T19:38:48;98181.63;;;-0.40;100.00
49947;BME280;35839;48.662;13.300;2023-01-29T19:41:14;98185.41;;;-0.49;100.00
49947;BME280;35839;48.662;13.300;2023-01-29T19:43:39;98188.06;;;-0.51;100.00
49947;BME280;35839;48.662;13.300;2023-01-29T19:46:06;98180.56;;;-0.35;100.00
49947;BME280;35839;48.662;13.300;2023-01-29T19:48:31;98183.97;;;-0.56;100.00
49947;BME280;35839;48.662;13.300;2023-01-29T19:51:02;98182.91;;;-0.51;100.00
49947;BME280;35839;48.662;13.300;2023-01-29T19:53:29;98168.06;;;-0.44;100.00
49947;BME280;35839;48.662;13.300;2023-01-29T19:56:07;98176.56;;;-0.64;100.00